Time;durP1;ratioP1;P1;durP2;ratioP2;P2;SDS_P1;SDS_P2;PMS_P1;PMS_P2;Temp;Humidity;BMP_temperature;BMP_pressure;BME280_temperature;BME280_humidity;BME280_pressure;Samples;Min_cycle;Max_cycle;Signal;HPM_P1;HPM_P2
2022/06/12 00:01:47;;;;;;;;;5.75;2.00;;;;;30.69;27.57;102062.94;5037545;28;45388;-66
2022/06/12 00:04:13;;;;;;;;;5.25;2.00;;;;;30.65;27.61;102066.91;5037361;28;45385;-66
2022/06/12 00:06:38;;;;;;;;;3.00;1.25;;;;;30.62;27.43;102059.09;5039215;28;45404;-66
2022/06/12 00:09:03;;;;;;;;;3.25;2.00;;;;;30.62;27.84;102064.47;5040019;28;45537;-66
2022/06/12 00:11:29;;;;;;;;;3.00;3.00;;;;;30.76;27.95;102070.28;5040657;28;45244;-65
2022/06/12 00:13:59;;;;;;;;;2.25;1.25;;;;;30.80;27.75;102062.78;5050222;28;46371;-66
2022/06/12 00:16:25;;;;;;;;;2.50;1.75;;;;;30.67;27.53;102060.41;5050525;28;45742;-66
2022/06/12 00:18:51;;;;;;;;;4.75;2.50;;;;;30.74;27.87;102066.91;5040472;28;45407;-66
2022/06/12 00:21:16;;;;;;;;;1.00;1.00;;;;;30.75;27.69;102063.22;5040761;28;45282;-67
2022/06/12 00:23:51;;;;;;;;;2.25;2.00;;;;;30.73;27.28;102061.66;5036694;28;47497;-64
2022/06/12 00:26:21;;;;;;;;;3.00;3.00;;;;;30.66;27.77;102060.56;5039117;28;45443;-66
2022/06/12 00:28:47;;;;;;;;;3.75;2.25;;;;;30.58;27.50;102066.56;5039403;28;45596;-66
2022/06/12 00:31:12;;;;;;;;;4.00;2.00;;;;;30.57;28.31;102060.34;5050406;28;45352;-65
2022/06/12 00:33:38;;;;;;;;;2.00;2.00;;;;;30.48;27.64;102061.22;5039112;28;46080;-66
2022/06/12 00:36:04;;;;;;;;;3.25;1.00;;;;;30.54;28.04;102060.63;5039353;28;45453;-66
2022/06/12 00:38:30;;;;;;;;;4.00;3.00;;;;;30.53;28.20;102067.00;5040953;28;45444;-65
2022/06/12 00:40:55;;;;;;;;;1.50;1.50;;;;;30.50;28.08;102066.44;5041736;28;45546;-66
2022/06/12 00:43:22;;;;;;;;;1.00;1.00;;;;;30.43;27.67;102073.31;5040894;28;45363;-67
2022/06/12 00:45:49;;;;;;;;;3.50;3.00;;;;;30.47;28.23;102072.94;5041712;28;45312;-65
2022/06/12 00:48:21;;;;;;;;;1.75;1.50;;;;;30.47;28.12;102070.25;5041534;28;45321;-65
2022/06/12 00:51:11;;;;;;;;;2.00;2.00;;;;;30.54;27.67;102073.22;5041926;28;45384;-64
2022/06/12 00:53:56;;;;;;;;;4.25;1.00;;;;;30.61;27.49;102066.31;5040374;28;46177;-65
2022/06/12 00:56:27;;;;;;;;;4.00;3.00;;;;;30.63;27.81;102071.53;5041281;28;45213;-65
2022/06/12 00:58:57;;;;;;;;;4.00;3.00;;;;;30.64;27.91;102066.06;5022068;28;45432;-67
2022/06/12 01:01:32;;;;;;;;;4.50;3.00;;;;;30.56;27.63;102069.41;5041321;28;45427;-67
2022/06/12 01:06:44;;;;;;;;;2.00;2.00;;;;;30.45;28.06;102066.00;5028322;28;45638;-67
2022/06/12 01:09:14;;;;;;;;;3.75;1.75;;;;;30.34;27.90;102063.44;5041299;28;45374;-67
2022/06/12 01:11:44;;;;;;;;;2.00;2.00;;;;;30.32;28.39;102060.91;5041425;28;45439;-67
2022/06/12 01:14:13;;;;;;;;;3.00;2.25;;;;;30.33;28.73;102070.63;5048252;28;46375;-67
2022/06/12 01:16:45;;;;;;;;;2.75;1.25;;;;;30.33;28.67;102081.38;5051100;28;45434;-67
2022/06/12 01:19:22;;;;;;;;;2.00;2.00;;;;;30.34;28.19;102069.66;5038742;28;45537;-67
2022/06/12 01:22:00;;;;;;;;;3.50;2.00;;;;;30.30;28.20;102073.59;5040989;28;45304;-65
2022/06/12 01:24:51;;;;;;;;;3.00;1.50;;;;;30.34;28.32;102075.03;5040704;28;46428;-65
2022/06/12 01:27:39;;;;;;;;;3.00;3.00;;;;;30.36;28.09;102081.09;5040776;28;45408;-66
2022/06/12 01:30:31;;;;;;;;;4.00;2.50;;;;;30.41;28.00;102075.31;5026201;28;45608;-66
2022/06/12 01:33:08;;;;;;;;;3.00;3.00;;;;;30.24;28.60;102075.00;5034954;28;45337;-66
2022/06/12 01:35:42;;;;;;;;;7.00;2.00;;;;;30.20;28.46;102078.94;5039058;28;46139;-66
2022/06/12 01:38:13;;;;;;;;;4.00;2.75;;;;;30.14;28.32;102084.00;5039314;28;45297;-66
2022/06/12 01:40:59;;;;;;;;;4.50;2.50;;;;;30.14;28.61;102075.97;5038869;28;45414;-65
2022/06/12 01:43:36;;;;;;;;;1.25;1.25;;;;;30.10;29.09;102074.53;5035391;28;45711;-66
2022/06/12 01:46:15;;;;;;;;;4.50;1.75;;;;;30.17;28.54;102075.69;5037530;28;46537;-66
2022/06/12 01:48:46;;;;;;;;;3.00;3.00;;;;;30.23;28.43;102075.97;5037844;28;45285;-66
2022/06/12 01:51:23;;;;;;;;;3.00;3.00;;;;;30.07;28.57;102080.19;5025383;28;45386;-66
2022/06/12 01:53:58;;;;;;;;;4.00;1.00;;;;;29.99;28.93;102076.31;5028798;28;45339;-66
2022/06/12 01:56:34;;;;;;;;;3.00;1.50;;;;;29.87;28.87;102089.97;5036074;28;46663;-67
2022/06/12 01:59:33;;;;;;;;;2.00;2.00;;;;;29.91;28.47;102086.00;5034548;28;45444;-67
2022/06/12 02:02:11;;;;;;;;;2.50;1.50;;;;;29.84;29.22;102091.09;5031132;28;45472;-66
2022/06/12 02:05:15;;;;;;;;;4.75;2.00;;;;;29.87;28.46;102090.81;5038174;28;45473;-67
2022/06/12 02:07:50;;;;;;;;;1.00;0.75;;;;;29.71;29.12;102085.09;5030135;28;45911;-67
2022/06/12 02:10:24;;;;;;;;;3.50;2.00;;;;;29.58;29.83;102084.44;5018915;28;45489;-67
2022/06/12 02:13:22;;;;;;;;;3.75;2.00;;;;;29.53;28.81;102079.50;5032420;28;45478;-67
2022/06/12 02:15:48;;;;;;;;;3.00;3.00;;;;;29.37;29.64;102096.00;5035448;28;46663;-67
2022/06/12 02:18:28;;;;;;;;;3.00;3.00;;;;;29.39;29.87;102093.19;5037712;28;45617;-67
2022/06/12 02:21:08;;;;;;;;;2.25;2.25;;;;;29.44;29.46;102096.34;5037650;28;45386;-67
2022/06/12 02:23:50;;;;;;;;;2.00;2.00;;;;;29.38;29.81;102094.16;5040123;28;45317;-67
2022/06/12 02:26:22;;;;;;;;;1.25;1.25;;;;;29.41;29.36;102093.91;5038577;28;45695;-67
2022/06/12 02:28:58;;;;;;;;;4.25;2.00;;;;;29.37;29.49;102087.13;5038773;28;45300;-66
2022/06/12 02:31:34;;;;;;;;;3.50;2.00;;;;;29.30;29.80;102096.66;5029579;28;45581;-65
2022/06/12 02:34:06;;;;;;;;;6.00;4.00;;;;;29.28;29.45;102094.13;5039917;28;45339;-77
2022/06/12 02:36:37;;;;;;;;;6.00;4.00;;;;;29.26;29.86;102096.09;5039750;28;45485;-74
2022/06/12 02:39:10;;;;;;;;;6.00;2.50;;;;;29.22;29.63;102097.31;5039420;28;45711;-72
2022/06/12 02:41:40;;;;;;;;;3.25;3.00;;;;;29.24;29.90;102100.72;5039752;28;45717;-72
2022/06/12 02:44:19;;;;;;;;;2.00;2.00;;;;;29.31;29.63;102090.34;5039407;28;45281;-72
2022/06/12 02:46:52;;;;;;;;;5.50;2.25;;;;;29.42;29.94;102084.03;5038630;28;46285;-72
2022/06/12 02:49:18;;;;;;;;;4.25;4.25;;;;;29.51;29.06;102081.47;5039596;28;45340;-74
2022/06/12 02:51:44;;;;;;;;;5.00;3.00;;;;;29.56;29.16;102084.59;5039467;28;45436;-73
2022/06/12 02:54:36;;;;;;;;;3.50;1.75;;;;;29.58;29.22;102082.63;5039931;28;45346;-73
2022/06/12 02:57:13;;;;;;;;;4.75;2.00;;;;;29.55;29.47;102087.41;5006043;28;45483;-74
2022/06/12 03:00:02;;;;;;;;;4.50;3.50;;;;;29.50;29.92;102084.28;5038784;28;45440;-73
2022/06/12 03:02:35;;;;;;;;;5.75;4.00;;;;;29.47;29.90;102089.91;5039579;28;45344;-73
2022/06/12 03:05:12;;;;;;;;;3.50;3.00;;;;;29.50;29.32;102087.81;5039420;28;45348;-72
2022/06/12 03:07:39;;;;;;;;;4.75;3.00;;;;;29.43;29.73;102086.56;5039214;28;45316;-72
2022/06/12 03:10:10;;;;;;;;;5.75;4.75;;;;;29.50;29.24;102086.94;5039470;28;45320;-70
2022/06/12 03:12:35;;;;;;;;;6.00;5.50;;;;;29.47;29.35;102082.72;5020252;28;45813;-70
2022/06/12 03:15:21;;;;;;;;;6.75;5.25;;;;;29.51;29.63;102083.28;5037487;28;45311;-70
2022/06/12 03:17:46;;;;;;;;;6.75;4.50;;;;;29.54;29.36;102083.88;5039515;28;45531;-70
2022/06/12 03:20:12;;;;;;;;;5.00;3.50;;;;;29.54;30.09;102077.66;5039248;28;46139;-70
2022/06/12 03:22:47;;;;;;;;;4.50;3.00;;;;;29.55;29.92;102087.41;5039128;28;45349;-69
2022/06/12 03:25:45;;;;;;;;;4.50;3.25;;;;;29.48;29.97;102088.91;5020876;28;45372;-71
2022/06/12 03:28:14;;;;;;;;;5.75;4.00;;;;;29.49;29.98;102083.44;4983421;28;45217;-71
2022/06/12 03:30:53;;;;;;;;;4.00;3.25;;;;;29.53;29.95;102089.38;5050027;28;45377;-71
2022/06/12 03:33:29;;;;;;;;;6.00;3.25;;;;;29.63;30.05;102091.13;5039338;28;45671;-71
2022/06/12 03:36:07;;;;;;;;;4.75;4.25;;;;;29.58;29.97;102090.66;5038886;28;45309;-70
2022/06/12 03:38:54;;;;;;;;;3.00;2.00;;;;;29.52;30.20;102083.16;5038963;28;45492;-69
2022/06/12 03:41:23;;;;;;;;;5.00;3.75;;;;;29.53;29.75;102084.84;5041812;28;46533;-69
2022/06/12 03:44:10;;;;;;;;;3.25;2.00;;;;;29.44;30.18;102090.13;5022954;28;45981;-66
2022/06/12 03:46:38;;;;;;;;;6.50;4.00;;;;;29.36;29.97;102083.59;5042623;28;45225;-65
2022/06/12 03:49:07;;;;;;;;;5.50;4.50;;;;;29.43;29.99;102083.06;5042604;28;45592;-65
2022/06/12 03:51:57;;;;;;;;;1.75;0.25;;;;;29.40;30.02;102081.50;5042372;28;45631;-65
2022/06/12 03:54:52;;;;;;;;;6.00;2.25;;;;;29.39;30.38;102087.84;5042516;28;45467;-66
2022/06/12 03:57:52;;;;;;;;;2.75;2.75;;;;;29.36;29.83;102082.75;5031887;28;45333;-66
2022/06/12 04:00:37;;;;;;;;;4.00;3.00;;;;;29.38;30.38;102081.63;5042469;28;45286;-66
2022/06/12 04:03:12;;;;;;;;;4.75;3.75;;;;;29.39;30.54;102082.47;5041807;28;45443;-65
2022/06/12 04:05:42;;;;;;;;;7.50;4.00;;;;;29.39;30.07;102072.59;5042288;28;45669;-65
2022/06/12 04:08:14;;;;;;;;;4.25;4.25;;;;;29.41;30.18;102072.47;5042161;28;45297;-66
2022/06/12 04:10:40;;;;;;;;;6.00;3.00;;;;;29.43;30.08;102072.34;5042252;28;45206;-65
2022/06/12 04:13:08;;;;;;;;;7.25;3.75;;;;;29.46;30.18;102072.13;5043274;28;46395;-65
2022/06/12 04:15:42;;;;;;;;;2.25;2.00;;;;;29.42;30.04;102070.63;5059764;28;45725;-66
2022/06/12 04:18:08;;;;;;;;;6.25;3.25;;;;;29.38;30.67;102078.94;5041880;28;45467;-65
2022/06/12 04:21:00;;;;;;;;;3.75;3.00;;;;;29.47;30.69;102068.47;5041944;28;45491;-65
2022/06/12 04:23:37;;;;;;;;;6.50;4.00;;;;;29.43;30.10;102072.34;5042004;28;46559;-66
2022/06/12 04:26:31;;;;;;;;;4.50;2.50;;;;;29.34;30.28;102074.84;5041663;28;45264;-66
2022/06/12 04:29:03;;;;;;;;;3.00;2.75;;;;;29.28;30.87;102072.69;5041273;28;45451;-66
2022/06/12 04:31:31;;;;;;;;;3.50;2.75;;;;;29.35;30.60;102076.53;5051216;28;45235;-66
2022/06/12 04:34:17;;;;;;;;;6.00;3.00;;;;;29.44;30.88;102090.13;5038779;28;46605;-66
2022/06/12 04:36:46;;;;;;;;;5.00;4.25;;;;;29.34;30.47;102101.63;5042836;28;45444;-66
2022/06/12 04:39:15;;;;;;;;;4.25;3.50;;;;;29.32;31.07;102097.38;5041258;28;45354;-66
2022/06/12 04:41:40;;;;;;;;;5.00;4.00;;;;;29.30;30.65;102080.59;5041279;28;45466;-66
2022/06/12 04:44:07;;;;;;;;;2.75;2.75;;;;;29.27;30.84;102086.22;5040818;28;46044;-66
2022/06/12 04:46:35;;;;;;;;;5.50;3.00;;;;;29.38;30.89;102086.97;5041551;28;45571;-66
2022/06/12 04:49:01;;;;;;;;;3.00;2.50;;;;;29.51;30.28;102085.97;5041488;28;45418;-66
2022/06/12 04:51:27;;;;;;;;;4.50;3.25;;;;;29.54;30.54;102089.22;5041122;28;45325;-66
2022/06/12 04:53:53;;;;;;;;;5.00;4.00;;;;;29.47;31.09;102084.53;5040752;28;46591;-65
2022/06/12 04:56:21;;;;;;;;;5.50;4.25;;;;;29.46;30.42;102083.69;5041494;28;45316;-65
2022/06/12 04:58:46;;;;;;;;;5.00;3.50;;;;;29.49;30.86;102079.91;5022834;28;45482;-65
2022/06/12 05:01:12;;;;;;;;;5.50;4.75;;;;;29.42;31.23;102082.19;5041506;28;45477;-65
2022/06/12 05:03:38;;;;;;;;;5.75;3.00;;;;;29.44;31.13;102082.94;5040946;28;46275;-65
2022/06/12 05:06:04;;;;;;;;;8.50;4.75;;;;;29.44;30.99;102076.75;5040865;28;45436;-64
2022/06/12 05:08:31;;;;;;;;;3.00;3.00;;;;;29.51;31.13;102081.47;5041203;28;45281;-64
2022/06/12 05:10:56;;;;;;;;;3.75;2.75;;;;;29.47;30.48;102079.19;5040878;28;45325;-64
2022/06/12 05:13:24;;;;;;;;;3.00;2.00;;;;;29.52;30.93;102087.66;5022427;28;47088;-64
2022/06/12 05:15:49;;;;;;;;;6.50;4.00;;;;;29.52;30.94;102077.78;5022905;28;45265;-63
2022/06/12 05:18:18;;;;;;;;;3.00;3.00;;;;;29.49;30.68;102077.22;5041261;28;45276;-63
2022/06/12 05:20:45;;;;;;;;;5.00;3.00;;;;;29.47;31.05;102076.50;5038375;28;45551;-74
2022/06/12 05:23:10;;;;;;;;;3.00;3.00;;;;;29.67;30.90;102071.13;5044318;28;45519;-71
2022/06/12 05:25:36;;;;;;;;;3.25;3.00;;;;;29.78;30.07;102070.16;5046297;28;45292;-68
2022/06/12 05:28:03;;;;;;;;;3.00;3.00;;;;;29.90;30.40;102062.88;5040616;28;45537;-69
2022/06/12 05:30:31;;;;;;;;;7.50;3.00;;;;;30.02;29.98;102066.28;5040815;28;45337;-70
2022/06/12 05:32:58;;;;;;;;;3.25;3.25;;;;;30.05;30.71;102071.44;5040850;28;45270;-71
2022/06/12 05:35:23;;;;;;;;;7.25;5.00;;;;;29.99;30.16;102070.94;5040685;28;45675;-71
2022/06/12 05:37:50;;;;;;;;;5.25;2.50;;;;;30.08;30.27;102071.16;5022390;28;45323;-69
2022/06/12 05:40:21;;;;;;;;;6.25;2.25;;;;;30.14;30.67;102071.44;5039994;28;45370;-66
2022/06/12 05:42:46;;;;;;;;;5.75;3.25;;;;;30.05;30.16;102068.75;5038133;28;45435;-66
2022/06/12 05:45:15;;;;;;;;;5.00;3.00;;;;;30.09;30.08;102068.34;5029478;28;45432;-65
2022/06/12 05:47:49;;;;;;;;;4.00;4.00;;;;;30.05;30.51;102069.59;5031191;28;45407;-65
2022/06/12 05:50:15;;;;;;;;;6.50;4.00;;;;;30.07;30.10;102067.63;5032390;28;45307;-65
2022/06/12 05:52:41;;;;;;;;;3.00;3.00;;;;;30.15;29.79;102070.47;5012910;28;48116;-64
2022/06/12 05:55:07;;;;;;;;;3.00;3.00;;;;;30.19;29.77;102079.91;5033443;28;45459;-63
2022/06/12 05:57:32;;;;;;;;;4.50;3.00;;;;;30.33;29.88;102078.69;5016650;28;45519;-64
2022/06/12 05:59:58;;;;;;;;;4.00;2.50;;;;;30.45;29.80;102082.97;5040167;28;45612;-63
2022/06/12 06:02:23;;;;;;;;;7.75;4.75;;;;;30.52;29.67;102091.28;5039607;28;45395;-63
2022/06/12 06:04:49;;;;;;;;;4.00;2.00;;;;;30.59;29.22;102084.38;5022963;28;45484;-64
2022/06/12 06:07:14;;;;;;;;;4.25;3.00;;;;;30.56;28.94;102088.19;5030197;28;45295;-64
2022/06/12 06:09:40;;;;;;;;;14.25;13.00;;;;;30.65;29.07;102089.22;5032117;28;45377;-64
2022/06/12 06:12:05;;;;;;;;;4.50;3.75;;;;;30.77;29.44;102093.44;5020956;28;46295;-62
2022/06/12 06:14:31;;;;;;;;;3.00;3.00;;;;;30.76;29.52;102099.81;5042817;28;45416;-62
2022/06/12 06:16:56;;;;;;;;;3.25;1.75;;;;;30.84;28.58;102099.97;5048160;28;46530;-62
2022/06/12 06:19:22;;;;;;;;;3.50;3.25;;;;;30.86;28.41;102091.78;5039831;28;45446;-62
2022/06/12 06:21:47;;;;;;;;;5.00;3.00;;;;;30.96;28.39;102094.44;5039290;28;45240;-62
2022/06/12 06:24:14;;;;;;;;;7.00;3.50;;;;;31.16;28.57;102096.13;5033142;28;45261;-63
2022/06/12 06:26:40;;;;;;;;;2.00;1.50;;;;;31.14;28.52;102096.25;5040193;28;45376;-64
2022/06/12 06:29:06;;;;;;;;;4.75;3.00;;;;;31.08;28.47;102102.22;5039896;28;45285;-63
2022/06/12 06:31:32;;;;;;;;;1.00;1.00;;;;;31.26;28.34;102104.22;5039888;28;45328;-64
2022/06/12 06:33:57;;;;;;;;;2.75;2.75;;;;;31.40;28.25;102101.91;5039913;28;45359;-64
2022/06/12 06:36:23;;;;;;;;;5.50;3.00;;;;;31.57;27.75;102102.13;5040109;28;45412;-64
2022/06/12 06:38:54;;;;;;;;;2.25;2.00;;;;;31.69;27.81;102115.25;5039721;28;45477;-65
2022/06/12 06:41:20;;;;;;;;;5.25;3.75;;;;;31.64;27.61;102112.19;5039811;28;46529;-64
2022/06/12 06:46:30;;;;;;;;;3.00;2.00;;;;;31.74;27.40;102114.84;5039937;28;45432;-66
2022/06/12 06:48:55;;;;;;;;;4.50;4.00;;;;;31.64;27.33;102111.34;5039762;28;45420;-66
2022/06/12 06:51:20;;;;;;;;;3.00;3.00;;;;;31.68;27.60;102108.19;5039548;28;45648;-65
2022/06/12 06:53:46;;;;;;;;;3.00;3.00;;;;;31.76;27.58;102102.94;5039593;28;45297;-65
2022/06/12 06:56:11;;;;;;;;;1.50;1.50;;;;;31.80;27.24;102108.88;5040302;28;45537;-65
2022/06/12 06:58:37;;;;;;;;;2.75;2.00;;;;;31.75;27.13;102106.63;5038882;28;45403;-65
2022/06/12 07:01:04;;;;;;;;;2.75;2.00;;;;;31.76;27.31;102115.53;5039281;28;45437;-65
2022/06/12 07:03:30;;;;;;;;;3.00;3.00;;;;;31.80;27.52;102114.25;5039534;28;45455;-63
2022/06/12 07:05:56;;;;;;;;;2.75;2.75;;;;;31.89;27.20;102112.53;5021302;28;45478;-63
2022/06/12 07:08:27;;;;;;;;;3.75;2.00;;;;;31.98;26.49;102117.00;5039564;28;45226;-63
2022/06/12 07:10:55;;;;;;;;;3.00;3.00;;;;;32.02;27.09;102115.72;5036148;28;45446;-63
2022/06/12 07:13:20;;;;;;;;;3.50;3.00;;;;;32.03;27.53;102109.34;5033724;28;45300;-68
2022/06/12 07:15:46;;;;;;;;;3.00;2.75;;;;;32.13;26.59;102115.53;5033877;28;45298;-67
2022/06/12 07:18:12;;;;;;;;;5.00;2.00;;;;;32.15;26.50;102113.53;5038118;28;45191;-63
2022/06/12 07:20:46;;;;;;;;;4.25;2.00;;;;;32.38;26.89;102122.06;5033453;28;45229;-65
2022/06/12 07:23:14;;;;;;;;;1.50;0.25;;;;;32.45;26.60;102125.03;5034694;28;45480;-64
2022/06/12 07:25:44;;;;;;;;;4.75;3.75;;;;;32.58;26.40;102120.09;5034217;28;45467;-63
2022/06/12 07:28:10;;;;;;;;;4.75;4.25;;;;;32.68;26.45;102121.72;5037063;28;45309;-64
2022/06/12 07:30:37;;;;;;;;;3.00;2.00;;;;;32.73;25.91;102126.66;5034715;28;45477;-65
2022/06/12 07:33:03;;;;;;;;;3.75;3.00;;;;;32.63;26.08;102117.78;5037337;28;45155;-64
2022/06/12 07:35:29;;;;;;;;;5.00;3.00;;;;;32.66;26.16;102125.59;5034820;28;45495;-64
2022/06/12 07:37:55;;;;;;;;;4.50;3.50;;;;;32.67;25.82;102122.72;5038028;28;45420;-64
2022/06/12 07:40:25;;;;;;;;;3.50;2.50;;;;;32.82;26.29;102117.66;5034708;28;45437;-63
2022/06/12 07:42:51;;;;;;;;;3.75;3.75;;;;;32.98;25.77;102115.13;5037828;28;45578;-64
2022/06/12 07:45:18;;;;;;;;;5.00;4.75;;;;;33.13;26.03;102126.19;5040766;28;45367;-64
2022/06/12 07:47:43;;;;;;;;;3.00;3.00;;;;;33.24;25.69;102119.72;5033677;28;45223;-61
2022/06/12 07:50:09;;;;;;;;;4.00;2.50;;;;;33.30;25.72;102127.19;5042390;28;45273;-63
2022/06/12 07:52:38;;;;;;;;;2.00;2.00;;;;;33.43;25.29;102130.31;5022827;28;45687;-62
2022/06/12 07:55:05;;;;;;;;;6.00;4.00;;;;;33.58;25.52;102127.88;5037050;28;45454;-62
2022/06/12 07:57:31;;;;;;;;;4.25;3.25;;;;;33.61;25.43;102129.41;5038842;28;45369;-62
2022/06/12 07:59:56;;;;;;;;;2.25;2.25;;;;;33.59;25.06;102124.19;5037852;28;45841;-63
2022/06/12 08:02:22;;;;;;;;;7.00;2.00;;;;;33.63;25.72;102122.00;5042047;28;45695;-62
2022/06/12 08:04:47;;;;;;;;;4.25;2.50;;;;;33.76;25.78;102122.44;5022800;28;45369;-64
2022/06/12 08:07:13;;;;;;;;;4.00;3.00;;;;;33.90;25.34;102116.47;5042154;28;45429;-65
2022/06/12 08:09:38;;;;;;;;;5.25;2.50;;;;;33.89;25.70;102117.50;5041999;28;45954;-61
2022/06/12 08:12:04;;;;;;;;;4.25;3.00;;;;;33.83;24.55;102118.91;5023495;28;45293;-60
2022/06/12 08:14:30;;;;;;;;;5.00;2.00;;;;;33.82;25.70;102119.94;5056178;28;46664;-61
2022/06/12 08:16:55;;;;;;;;;3.75;3.75;;;;;33.82;25.15;102119.94;5049676;28;45331;-59
2022/06/12 08:22:07;;;;;;;;;2.75;2.75;;;;;33.91;25.02;102123.56;5041776;28;45476;-58
2022/06/12 08:24:34;;;;;;;;;6.00;2.25;;;;;34.14;24.70;102108.47;5041379;28;45593;-60
2022/06/12 08:27:00;;;;;;;;;3.50;3.50;;;;;34.27;24.62;102109.88;5022318;28;45550;-62
2022/06/12 08:29:25;;;;;;;;;3.00;2.00;;;;;34.34;24.32;102102.81;5040311;28;46156;-61
2022/06/12 08:31:55;;;;;;;;;1.50;1.50;;;;;34.44;24.10;102107.09;5039969;28;45523;-60
2022/06/12 08:34:32;;;;;;;;;0.75;0.75;;;;;34.46;23.62;102105.06;5041239;28;45487;-59
2022/06/12 08:37:01;;;;;;;;;5.25;2.25;;;;;34.45;23.43;102097.97;5041757;28;45478;-59
2022/06/12 08:39:27;;;;;;;;;2.50;2.50;;;;;34.41;23.64;102095.75;5041748;28;45453;-59
2022/06/12 08:41:52;;;;;;;;;0.50;0.50;;;;;34.42;23.80;102100.97;5041540;28;45222;-59
2022/06/12 08:45:01;;;;;;;;;2.75;1.75;;;;;34.47;23.24;102085.16;5040669;28;45484;-60
2022/06/12 08:47:38;;;;;;;;;4.00;1.50;;;;;34.25;23.77;102090.31;4995719;28;45487;-59
2022/06/12 08:50:11;;;;;;;;;3.00;1.50;;;;;34.14;23.10;102088.75;5035229;28;45911;-58
2022/06/12 08:52:50;;;;;;;;;1.75;1.75;;;;;34.26;23.55;102078.50;5024812;28;45378;-63
2022/06/12 08:55:36;;;;;;;;;1.00;0.00;;;;;34.44;23.98;102088.19;5033563;28;45447;-60
2022/06/12 08:58:11;;;;;;;;;2.75;2.75;;;;;34.48;23.98;102088.69;5039879;28;45274;-62
2022/06/12 09:00:38;;;;;;;;;3.25;2.50;;;;;34.60;23.31;102084.66;5041050;28;46287;-62
2022/06/12 09:03:11;;;;;;;;;3.25;3.00;;;;;34.69;23.20;102083.66;5038670;28;45386;-61
2022/06/12 09:06:01;;;;;;;;;7.75;3.75;;;;;34.84;22.98;102080.28;5028935;28;45349;-60
2022/06/12 09:08:31;;;;;;;;;5.25;3.50;;;;;34.94;22.92;102081.84;5030972;28;45350;-60
2022/06/12 09:11:06;;;;;;;;;2.50;1.75;;;;;35.11;23.39;102087.22;5032548;28;46363;-60
2022/06/12 09:13:52;;;;;;;;;2.00;2.00;;;;;35.17;22.65;102081.97;5034960;28;45711;-60
2022/06/12 09:16:42;;;;;;;;;2.75;2.25;;;;;35.24;22.56;102076.72;5036836;28;45503;-60
2022/06/12 09:19:17;;;;;;;;;2.50;1.50;;;;;35.38;22.14;102073.34;5038722;28;45517;-60
2022/06/12 09:22:09;;;;;;;;;2.50;2.00;;;;;35.45;22.93;102078.94;5039497;28;47901;-61
2022/06/12 09:24:53;;;;;;;;;4.00;2.00;;;;;35.54;22.61;102065.19;5038245;28;47097;-61
2022/06/12 09:27:48;;;;;;;;;0.75;0.75;;;;;35.64;22.73;102078.50;5030044;28;45455;-63
2022/06/12 09:30:22;;;;;;;;;2.50;2.25;;;;;35.79;22.63;102068.66;5013024;28;45403;-62
2022/06/12 09:33:17;;;;;;;;;3.00;3.00;;;;;35.74;21.92;102071.03;5027994;28;45513;-61
2022/06/12 09:36:03;;;;;;;;;3.25;2.25;;;;;35.61;22.38;102062.63;5003654;28;45610;-60
2022/06/12 09:38:59;;;;;;;;;2.00;1.75;;;;;35.68;22.51;102069.06;5032515;28;45574;-60
2022/06/12 09:41:27;;;;;;;;;4.00;3.00;;;;;35.67;22.13;102070.91;5038730;28;45627;-60
2022/06/12 09:44:07;;;;;;;;;3.50;2.00;;;;;35.81;22.09;102074.72;5037427;28;45447;-60
2022/06/12 09:46:55;;;;;;;;;2.75;2.75;;;;;35.99;21.97;102070.97;5040453;28;45161;-60
2022/06/12 09:49:33;;;;;;;;;3.00;3.00;;;;;35.96;21.70;102078.41;5031290;28;45311;-61
2022/06/12 09:52:04;;;;;;;;;1.00;1.00;;;;;36.06;21.43;102071.97;5022342;28;45312;-60
2022/06/12 09:54:29;;;;;;;;;2.25;2.25;;;;;36.00;21.87;102073.50;5040554;28;46330;-61
2022/06/12 09:57:18;;;;;;;;;5.25;2.75;;;;;36.15;22.12;102071.72;5034420;28;45470;-60
2022/06/12 09:59:53;;;;;;;;;4.25;3.00;;;;;36.35;21.63;102082.13;5018351;28;45614;-60
2022/06/12 10:02:27;;;;;;;;;4.00;2.00;;;;;36.56;21.48;102074.19;5032468;28;45321;-60
2022/06/12 10:05:24;;;;;;;;;6.50;3.00;;;;;36.65;20.50;102073.13;5040193;28;45448;-60
2022/06/12 10:08:26;;;;;;;;;4.00;2.50;;;;;36.70;20.52;102080.69;5016479;28;45500;-60
2022/06/12 10:11:02;;;;;;;;;3.00;3.00;;;;;36.81;21.39;102070.28;5033821;28;45230;-60
2022/06/12 10:13:51;;;;;;;;;6.00;1.75;;;;;36.85;21.37;102078.91;5035516;28;45344;-61
2022/06/12 10:16:26;;;;;;;;;2.00;2.00;;;;;36.84;21.28;102074.50;5027501;28;45414;-61
2022/06/12 10:19:09;;;;;;;;;4.00;3.00;;;;;36.95;20.99;102068.66;5040160;28;45448;-61
2022/06/12 10:21:38;;;;;;;;;2.25;2.25;;;;;36.77;21.34;102073.50;5028554;28;45242;-62
2022/06/12 10:24:05;;;;;;;;;2.00;2.00;;;;;36.64;21.04;102070.56;5021512;28;45618;-60
2022/06/12 10:26:33;;;;;;;;;3.25;3.00;;;;;36.71;21.48;102076.97;5039947;28;47098;-59
2022/06/12 10:29:09;;;;;;;;;2.75;2.75;;;;;36.70;20.96;102070.69;5039862;28;45737;-61
2022/06/12 10:31:55;;;;;;;;;3.25;2.00;;;;;36.64;20.67;102068.69;5040012;28;45345;-60
2022/06/12 10:34:23;;;;;;;;;3.00;3.00;;;;;36.51;21.06;102061.19;5039553;28;45309;-60
2022/06/12 10:36:49;;;;;;;;;4.00;3.00;;;;;36.35;21.44;102060.47;5039736;28;46328;-61
2022/06/12 10:39:26;;;;;;;;;3.00;3.00;;;;;36.47;21.62;102057.16;5021358;28;45372;-62
2022/06/12 10:41:58;;;;;;;;;4.25;3.00;;;;;36.62;21.91;102050.94;5039808;28;45434;-62
2022/06/12 10:44:26;;;;;;;;;5.75;2.75;;;;;36.74;21.64;102044.91;5039031;28;45251;-64
2022/06/12 10:46:52;;;;;;;;;5.00;4.25;;;;;36.82;21.90;102038.59;5037087;28;48619;-63
2022/06/12 10:49:19;;;;;;;;;9.75;4.00;;;;;36.77;21.99;102046.41;5039232;28;45332;-62
2022/06/12 10:51:46;;;;;;;;;6.75;5.00;;;;;36.78;22.27;102037.28;5021107;28;45333;-60
2022/06/12 10:54:17;;;;;;;;;7.75;3.75;;;;;36.82;22.25;102036.75;5030873;28;45403;-61
2022/06/12 10:57:01;;;;;;;;;1.25;1.25;;;;;36.91;22.00;102032.09;5029819;28;46245;-61
2022/06/12 10:59:45;;;;;;;;;3.00;3.00;;;;;37.02;21.96;102031.63;5029305;28;45297;-60
2022/06/12 11:02:17;;;;;;;;;2.75;2.25;;;;;36.85;20.92;102024.72;5039838;28;45475;-61
2022/06/12 11:05:16;;;;;;;;;4.00;4.00;;;;;36.92;21.46;102032.94;5039034;28;45259;-61
2022/06/12 11:07:58;;;;;;;;;4.00;2.75;;;;;36.98;21.23;102030.31;5039210;28;46264;-62
2022/06/12 11:10:54;;;;;;;;;3.00;2.00;;;;;37.12;20.96;102024.09;5039433;28;45514;-63
2022/06/12 11:13:34;;;;;;;;;4.00;3.00;;;;;37.20;21.03;102025.03;5034545;28;45239;-64
2022/06/12 11:16:02;;;;;;;;;6.00;4.00;;;;;37.11;20.69;102030.53;5024139;28;45446;-66
2022/06/12 11:18:46;;;;;;;;;3.75;3.75;;;;;37.09;20.73;102020.91;5039290;28;45255;-66
2022/06/12 11:21:44;;;;;;;;;3.00;2.25;;;;;36.98;20.72;102002.38;5038822;28;45230;-66
2022/06/12 11:24:44;;;;;;;;;3.00;3.00;;;;;36.92;20.92;102005.84;5039171;28;45322;-66
2022/06/12 11:27:28;;;;;;;;;6.75;3.00;;;;;37.01;19.90;101999.31;5035070;28;45261;-66
2022/06/12 11:30:31;;;;;;;;;1.25;1.25;;;;;37.13;20.74;101993.25;5038947;28;45530;-65
2022/06/12 11:33:45;;;;;;;;;4.25;3.75;;;;;37.13;20.42;101985.13;5028089;28;45400;-64
2022/06/12 11:36:21;;;;;;;;;4.00;3.00;;;;;37.16;19.80;101987.44;4995073;28;45338;-64
2022/06/12 11:38:59;;;;;;;;;3.00;3.00;;;;;37.18;19.72;101979.13;5038835;28;45454;-64
2022/06/12 11:41:39;;;;;;;;;4.50;3.25;;;;;37.19;20.38;101983.50;5020422;28;47217;-65
2022/06/12 11:44:45;;;;;;;;;2.00;2.00;;;;;37.14;20.55;101975.94;5025850;28;45321;-65
2022/06/12 11:47:19;;;;;;;;;4.75;4.75;;;;;37.27;20.23;101969.91;5038926;28;45455;-65
2022/06/12 11:50:00;;;;;;;;;4.50;4.50;;;;;37.36;19.82;101966.06;5039197;28;45388;-62
2022/06/12 11:52:59;;;;;;;;;8.00;4.50;;;;;37.27;19.25;101964.50;5028238;28;45315;-62
2022/06/12 11:55:54;;;;;;;;;5.25;3.75;;;;;37.01;18.97;101964.06;5026604;28;45510;-62
2022/06/12 11:58:43;;;;;;;;;3.25;3.25;;;;;36.88;18.17;101955.75;5037940;28;45313;-62
2022/06/12 12:01:27;;;;;;;;;4.75;3.00;;;;;36.89;19.54;101957.44;4993952;28;45486;-62
2022/06/12 12:03:52;;;;;;;;;3.50;3.00;;;;;36.83;18.86;101967.97;5041965;28;46261;-63